sensor_id;sensor_type;location;lat;lon;timestamp;P1;durP1;ratioP1;P2;durP2;ratioP2
17959;SDS011;9105;53.552;9.980;2023-08-08T00:01:17;8.98;;;3.20;;
17959;SDS011;9105;53.552;9.980;2023-08-08T00:03:42;8.13;;;2.97;;
17959;SDS011;9105;53.552;9.980;2023-08-08T00:06:10;5.20;;;2.60;;
17959;SDS011;9105;53.552;9.980;2023-08-08T00:08:35;11.48;;;3.22;;
17959;SDS011;9105;53.552;9.980;2023-08-08T00:11:01;14.35;;;3.35;;
17959;SDS011;9105;53.552;9.980;2023-08-08T00:13:27;8.88;;;3.30;;
17959;SDS011;9105;53.552;9.980;2023-08-08T00:15:52;9.13;;;3.15;;
17959;SDS011;9105;53.552;9.980;2023-08-08T00:18:17;7.18;;;2.63;;
17959;SDS011;9105;53.552;9.980;2023-08-08T00:20:43;9.32;;;3.13;;
17959;SDS011;9105;53.552;9.980;2023-08-08T00:23:08;8.55;;;2.75;;
17959;SDS011;9105;53.552;9.980;2023-08-08T00:25:35;7.00;;;2.67;;
17959;SDS011;9105;53.552;9.980;2023-08-08T00:28:00;7.13;;;2.60;;
17959;SDS011;9105;53.552;9.980;2023-08-08T00:30:26;8.02;;;2.88;;
17959;SDS011;9105;53.552;9.980;2023-08-08T00:32:51;6.60;;;2.83;;
17959;SDS011;9105;53.552;9.980;2023-08-08T00:35:17;7.43;;;2.88;;
17959;SDS011;9105;53.552;9.980;2023-08-08T00:37:42;7.90;;;2.70;;
17959;SDS011;9105;53.552;9.980;2023-08-08T00:40:08;8.05;;;3.03;;
17959;SDS011;9105;53.552;9.980;2023-08-08T00:42:33;7.95;;;2.63;;
17959;SDS011;9105;53.552;9.980;2023-08-08T00:44:59;6.50;;;2.75;;
17959;SDS011;9105;53.552;9.980;2023-08-08T00:47:29;6.47;;;2.80;;
17959;SDS011;9105;53.552;9.980;2023-08-08T00:49:56;6.75;;;3.00;;
17959;SDS011;9105;53.552;9.980;2023-08-08T00:52:21;7.93;;;3.00;;
17959;SDS011;9105;53.552;9.980;2023-08-08T00:54:47;6.47;;;2.85;;
17959;SDS011;9105;53.552;9.980;2023-08-08T00:57:12;10.02;;;2.88;;
17959;SDS011;9105;53.552;9.980;2023-08-08T00:59:38;9.70;;;3.20;;
17959;SDS011;9105;53.552;9.980;2023-08-08T01:02:03;8.05;;;3.03;;
17959;SDS011;9105;53.552;9.980;2023-08-08T01:04:29;9.02;;;2.90;;
17959;SDS011;9105;53.552;9.980;2023-08-08T01:09:59;6.47;;;2.88;;
17959;SDS011;9105;53.552;9.980;2023-08-08T01:12:32;6.78;;;2.45;;
17959;SDS011;9105;53.552;9.980;2023-08-08T01:14:58;10.07;;;2.85;;
17959;SDS011;9105;53.552;9.980;2023-08-08T01:17:24;7.40;;;2.47;;
17959;SDS011;9105;53.552;9.980;2023-08-08T01:19:50;6.30;;;2.50;;
17959;SDS011;9105;53.552;9.980;2023-08-08T01:22:27;7.82;;;2.55;;
17959;SDS011;9105;53.552;9.980;2023-08-08T01:24:55;8.45;;;2.95;;
17959;SDS011;9105;53.552;9.980;2023-08-08T01:27:21;7.05;;;2.60;;
17959;SDS011;9105;53.552;9.980;2023-08-08T01:29:47;6.38;;;3.20;;
17959;SDS011;9105;53.552;9.980;2023-08-08T01:32:12;8.15;;;2.75;;
17959;SDS011;9105;53.552;9.980;2023-08-08T01:34:38;5.90;;;2.70;;
17959;SDS011;9105;53.552;9.980;2023-08-08T01:37:07;6.88;;;2.35;;
17959;SDS011;9105;53.552;9.980;2023-08-08T01:39:37;8.85;;;2.70;;
17959;SDS011;9105;53.552;9.980;2023-08-08T01:42:03;5.80;;;2.60;;
17959;SDS011;9105;53.552;9.980;2023-08-08T01:44:30;8.63;;;2.72;;
17959;SDS011;9105;53.552;9.980;2023-08-08T01:46:57;4.80;;;2.20;;
17959;SDS011;9105;53.552;9.980;2023-08-08T01:49:23;6.18;;;2.30;;
17959;SDS011;9105;53.552;9.980;2023-08-08T01:51:48;8.50;;;2.55;;
17959;SDS011;9105;53.552;9.980;2023-08-08T01:54:15;6.72;;;2.47;;
17959;SDS011;9105;53.552;9.980;2023-08-08T01:56:41;5.38;;;2.20;;
17959;SDS011;9105;53.552;9.980;2023-08-08T01:59:06;6.13;;;2.20;;
17959;SDS011;9105;53.552;9.980;2023-08-08T02:01:32;7.57;;;2.50;;
17959;SDS011;9105;53.552;9.980;2023-08-08T02:03:57;6.95;;;2.67;;
17959;SDS011;9105;53.552;9.980;2023-08-08T02:06:22;6.70;;;2.72;;
17959;SDS011;9105;53.552;9.980;2023-08-08T02:08:48;7.85;;;2.47;;
17959;SDS011;9105;53.552;9.980;2023-08-08T02:11:13;6.00;;;2.40;;
17959;SDS011;9105;53.552;9.980;2023-08-08T02:13:39;8.43;;;2.22;;
17959;SDS011;9105;53.552;9.980;2023-08-08T02:16:04;7.03;;;2.50;;
17959;SDS011;9105;53.552;9.980;2023-08-08T02:18:29;6.03;;;2.22;;
17959;SDS011;9105;53.552;9.980;2023-08-08T02:20:55;4.13;;;1.90;;
17959;SDS011;9105;53.552;9.980;2023-08-08T02:23:20;7.25;;;1.80;;
17959;SDS011;9105;53.552;9.980;2023-08-08T02:25:46;5.15;;;1.90;;
17959;SDS011;9105;53.552;9.980;2023-08-08T02:28:11;5.57;;;1.88;;
17959;SDS011;9105;53.552;9.980;2023-08-08T02:30:37;4.78;;;1.85;;
17959;SDS011;9105;53.552;9.980;2023-08-08T02:33:02;5.05;;;1.88;;
17959;SDS011;9105;53.552;9.980;2023-08-08T02:35:28;10.15;;;2.47;;
17959;SDS011;9105;53.552;9.980;2023-08-08T02:37:55;3.28;;;1.55;;
17959;SDS011;9105;53.552;9.980;2023-08-08T02:40:20;2.20;;;1.50;;
17959;SDS011;9105;53.552;9.980;2023-08-08T02:42:48;4.28;;;1.55;;
17959;SDS011;9105;53.552;9.980;2023-08-08T02:45:14;4.72;;;1.50;;
17959;SDS011;9105;53.552;9.980;2023-08-08T02:47:40;6.20;;;1.85;;
17959;SDS011;9105;53.552;9.980;2023-08-08T02:50:05;5.85;;;2.05;;
17959;SDS011;9105;53.552;9.980;2023-08-08T02:52:31;4.68;;;1.80;;
17959;SDS011;9105;53.552;9.980;2023-08-08T02:54:56;3.88;;;1.60;;
17959;SDS011;9105;53.552;9.980;2023-08-08T02:57:22;7.03;;;1.70;;
17959;SDS011;9105;53.552;9.980;2023-08-08T02:59:47;3.90;;;1.50;;
17959;SDS011;9105;53.552;9.980;2023-08-08T03:02:13;4.30;;;1.60;;
17959;SDS011;9105;53.552;9.980;2023-08-08T03:04:39;4.18;;;1.85;;
17959;SDS011;9105;53.552;9.980;2023-08-08T03:07:05;4.40;;;1.83;;
17959;SDS011;9105;53.552;9.980;2023-08-08T03:09:31;5.63;;;1.83;;
17959;SDS011;9105;53.552;9.980;2023-08-08T03:11:56;3.88;;;1.65;;
17959;SDS011;9105;53.552;9.980;2023-08-08T03:14:21;3.85;;;1.48;;
17959;SDS011;9105;53.552;9.980;2023-08-08T03:16:47;5.68;;;1.90;;
17959;SDS011;9105;53.552;9.980;2023-08-08T03:19:12;5.30;;;1.50;;
17959;SDS011;9105;53.552;9.980;2023-08-08T03:21:38;4.95;;;1.70;;
17959;SDS011;9105;53.552;9.980;2023-08-08T03:24:03;3.97;;;1.50;;
17959;SDS011;9105;53.552;9.980;2023-08-08T03:26:29;5.50;;;1.80;;
17959;SDS011;9105;53.552;9.980;2023-08-08T03:28:54;6.40;;;1.98;;
17959;SDS011;9105;53.552;9.980;2023-08-08T03:31:20;3.78;;;1.23;;
17959;SDS011;9105;53.552;9.980;2023-08-08T03:33:46;10.57;;;2.10;;
17959;SDS011;9105;53.552;9.980;2023-08-08T03:36:12;4.28;;;1.75;;
17959;SDS011;9105;53.552;9.980;2023-08-08T03:38:38;6.65;;;1.90;;
17959;SDS011;9105;53.552;9.980;2023-08-08T03:41:04;5.53;;;1.92;;
17959;SDS011;9105;53.552;9.980;2023-08-08T03:43:29;6.78;;;1.80;;
17959;SDS011;9105;53.552;9.980;2023-08-08T03:45:55;7.32;;;1.88;;
17959;SDS011;9105;53.552;9.980;2023-08-08T03:48:20;4.22;;;1.70;;
17959;SDS011;9105;53.552;9.980;2023-08-08T03:50:45;3.83;;;1.80;;
17959;SDS011;9105;53.552;9.980;2023-08-08T03:53:12;5.63;;;1.75;;
17959;SDS011;9105;53.552;9.980;2023-08-08T03:55:37;4.35;;;1.67;;
17959;SDS011;9105;53.552;9.980;2023-08-08T03:58:03;5.88;;;1.83;;
17959;SDS011;9105;53.552;9.980;2023-08-08T04:00:30;3.58;;;1.60;;
17959;SDS011;9105;53.552;9.980;2023-08-08T04:02:56;6.10;;;1.70;;
17959;SDS011;9105;53.552;9.980;2023-08-08T04:05:21;5.13;;;1.95;;
17959;SDS011;9105;53.552;9.980;2023-08-08T04:07:47;6.60;;;1.60;;
17959;SDS011;9105;53.552;9.980;2023-08-08T04:10:12;4.25;;;1.73;;
17959;SDS011;9105;53.552;9.980;2023-08-08T04:12:38;4.43;;;1.65;;
17959;SDS011;9105;53.552;9.980;2023-08-08T04:15:03;3.08;;;1.50;;
17959;SDS011;9105;53.552;9.980;2023-08-08T04:17:30;3.13;;;1.75;;
17959;SDS011;9105;53.552;9.980;2023-08-08T04:19:55;4.10;;;1.65;;
17959;SDS011;9105;53.552;9.980;2023-08-08T04:22:20;4.97;;;1.70;;
17959;SDS011;9105;53.552;9.980;2023-08-08T04:24:46;4.05;;;1.73;;
17959;SDS011;9105;53.552;9.980;2023-08-08T04:27:11;3.35;;;1.55;;
17959;SDS011;9105;53.552;9.980;2023-08-08T04:29:37;4.70;;;1.48;;
17959;SDS011;9105;53.552;9.980;2023-08-08T04:32:03;6.90;;;1.70;;
17959;SDS011;9105;53.552;9.980;2023-08-08T04:34:28;2.35;;;1.33;;
17959;SDS011;9105;53.552;9.980;2023-08-08T04:36:54;5.20;;;1.60;;
17959;SDS011;9105;53.552;9.980;2023-08-08T04:39:19;4.15;;;1.80;;
17959;SDS011;9105;53.552;9.980;2023-08-08T04:41:44;4.07;;;1.60;;
17959;SDS011;9105;53.552;9.980;2023-08-08T04:44:10;4.32;;;1.52;;
17959;SDS011;9105;53.552;9.980;2023-08-08T04:46:35;2.83;;;1.35;;
17959;SDS011;9105;53.552;9.980;2023-08-08T04:49:01;3.35;;;1.40;;
17959;SDS011;9105;53.552;9.980;2023-08-08T04:51:26;4.30;;;1.35;;
17959;SDS011;9105;53.552;9.980;2023-08-08T04:53:51;3.30;;;1.58;;
17959;SDS011;9105;53.552;9.980;2023-08-08T04:56:17;4.22;;;1.30;;
17959;SDS011;9105;53.552;9.980;2023-08-08T04:58:42;3.80;;;1.50;;
17959;SDS011;9105;53.552;9.980;2023-08-08T05:01:08;4.75;;;1.52;;
17959;SDS011;9105;53.552;9.980;2023-08-08T05:03:39;4.22;;;1.50;;
17959;SDS011;9105;53.552;9.980;2023-08-08T05:06:04;12.18;;;1.50;;
17959;SDS011;9105;53.552;9.980;2023-08-08T05:08:30;4.00;;;1.75;;
17959;SDS011;9105;53.552;9.980;2023-08-08T05:10:55;4.78;;;1.50;;
17959;SDS011;9105;53.552;9.980;2023-08-08T05:13:21;4.55;;;1.38;;
17959;SDS011;9105;53.552;9.980;2023-08-08T05:15:46;4.35;;;1.50;;
17959;SDS011;9105;53.552;9.980;2023-08-08T05:18:11;3.10;;;1.40;;
17959;SDS011;9105;53.552;9.980;2023-08-08T05:20:37;4.10;;;1.27;;
17959;SDS011;9105;53.552;9.980;2023-08-08T05:23:02;1.60;;;1.15;;
17959;SDS011;9105;53.552;9.980;2023-08-08T05:25:28;2.30;;;1.25;;
17959;SDS011;9105;53.552;9.980;2023-08-08T05:27:53;3.60;;;1.20;;
17959;SDS011;9105;53.552;9.980;2023-08-08T05:30:19;4.20;;;1.65;;
17959;SDS011;9105;53.552;9.980;2023-08-08T05:32:44;5.20;;;1.30;;
17959;SDS011;9105;53.552;9.980;2023-08-08T05:35:10;5.88;;;1.48;;
17959;SDS011;9105;53.552;9.980;2023-08-08T05:37:35;4.43;;;1.75;;
17959;SDS011;9105;53.552;9.980;2023-08-08T05:40:01;5.40;;;1.48;;
17959;SDS011;9105;53.552;9.980;2023-08-08T05:42:26;4.35;;;1.48;;
17959;SDS011;9105;53.552;9.980;2023-08-08T05:44:52;3.25;;;1.25;;
17959;SDS011;9105;53.552;9.980;2023-08-08T05:47:17;3.83;;;1.58;;
17959;SDS011;9105;53.552;9.980;2023-08-08T05:49:42;4.00;;;1.50;;
17959;SDS011;9105;53.552;9.980;2023-08-08T05:52:08;5.30;;;1.40;;
17959;SDS011;9105;53.552;9.980;2023-08-08T05:54:34;5.35;;;1.48;;
17959;SDS011;9105;53.552;9.980;2023-08-08T05:56:59;5.00;;;1.35;;
17959;SDS011;9105;53.552;9.980;2023-08-08T05:59:25;4.03;;;1.40;;
17959;SDS011;9105;53.552;9.980;2023-08-08T06:01:50;6.63;;;1.65;;
17959;SDS011;9105;53.552;9.980;2023-08-08T06:04:16;6.18;;;1.70;;
17959;SDS011;9105;53.552;9.980;2023-08-08T06:06:41;4.78;;;1.70;;
17959;SDS011;9105;53.552;9.980;2023-08-08T06:09:06;3.72;;;1.30;;
17959;SDS011;9105;53.552;9.980;2023-08-08T06:11:33;1.75;;;1.20;;
17959;SDS011;9105;53.552;9.980;2023-08-08T06:13:59;3.70;;;1.40;;
17959;SDS011;9105;53.552;9.980;2023-08-08T06:16:25;3.00;;;1.33;;
17959;SDS011;9105;53.552;9.980;2023-08-08T06:18:51;4.15;;;1.27;;
17959;SDS011;9105;53.552;9.980;2023-08-08T06:21:17;4.13;;;1.50;;
17959;SDS011;9105;53.552;9.980;2023-08-08T06:23:42;4.15;;;1.60;;
17959;SDS011;9105;53.552;9.980;2023-08-08T06:26:08;5.00;;;1.50;;
17959;SDS011;9105;53.552;9.980;2023-08-08T06:28:34;5.50;;;1.40;;
17959;SDS011;9105;53.552;9.980;2023-08-08T06:31:00;4.88;;;1.52;;
17959;SDS011;9105;53.552;9.980;2023-08-08T06:33:26;2.88;;;1.70;;
17959;SDS011;9105;53.552;9.980;2023-08-08T06:35:52;3.47;;;1.60;;
17959;SDS011;9105;53.552;9.980;2023-08-08T06:38:17;3.35;;;1.70;;
17959;SDS011;9105;53.552;9.980;2023-08-08T06:40:43;5.13;;;1.98;;
17959;SDS011;9105;53.552;9.980;2023-08-08T06:43:08;4.35;;;1.50;;
17959;SDS011;9105;53.552;9.980;2023-08-08T06:45:34;5.80;;;1.70;;
17959;SDS011;9105;53.552;9.980;2023-08-08T06:47:59;5.85;;;1.77;;
17959;SDS011;9105;53.552;9.980;2023-08-08T06:50:25;5.50;;;1.73;;
17959;SDS011;9105;53.552;9.980;2023-08-08T06:52:50;8.00;;;1.70;;
17959;SDS011;9105;53.552;9.980;2023-08-08T06:55:16;3.95;;;1.75;;
17959;SDS011;9105;53.552;9.980;2023-08-08T06:57:42;3.53;;;1.45;;
17959;SDS011;9105;53.552;9.980;2023-08-08T07:00:08;5.63;;;1.70;;
17959;SDS011;9105;53.552;9.980;2023-08-08T07:02:38;4.45;;;1.65;;
17959;SDS011;9105;53.552;9.980;2023-08-08T07:05:04;3.88;;;1.77;;
17959;SDS011;9105;53.552;9.980;2023-08-08T07:07:30;5.50;;;2.28;;
17959;SDS011;9105;53.552;9.980;2023-08-08T07:09:58;4.93;;;1.60;;
17959;SDS011;9105;53.552;9.980;2023-08-08T07:12:23;3.78;;;1.70;;
17959;SDS011;9105;53.552;9.980;2023-08-08T07:14:48;3.83;;;1.40;;
17959;SDS011;9105;53.552;9.980;2023-08-08T07:17:14;4.13;;;1.58;;
17959;SDS011;9105;53.552;9.980;2023-08-08T07:19:39;4.80;;;1.80;;
17959;SDS011;9105;53.552;9.980;2023-08-08T07:22:06;7.47;;;1.85;;
17959;SDS011;9105;53.552;9.980;2023-08-08T07:24:31;4.03;;;1.33;;
17959;SDS011;9105;53.552;9.980;2023-08-08T07:26:57;5.03;;;1.80;;
17959;SDS011;9105;53.552;9.980;2023-08-08T07:29:23;6.13;;;1.50;;
17959;SDS011;9105;53.552;9.980;2023-08-08T07:31:50;3.95;;;1.38;;
17959;SDS011;9105;53.552;9.980;2023-08-08T07:34:17;4.60;;;1.33;;
17959;SDS011;9105;53.552;9.980;2023-08-08T07:36:43;4.15;;;1.35;;
17959;SDS011;9105;53.552;9.980;2023-08-08T07:39:08;3.03;;;1.27;;
17959;SDS011;9105;53.552;9.980;2023-08-08T07:41:34;3.55;;;1.20;;
17959;SDS011;9105;53.552;9.980;2023-08-08T07:44:00;4.43;;;1.60;;
17959;SDS011;9105;53.552;9.980;2023-08-08T07:46:25;3.40;;;1.13;;
17959;SDS011;9105;53.552;9.980;2023-08-08T07:48:50;4.53;;;1.27;;
17959;SDS011;9105;53.552;9.980;2023-08-08T07:51:16;6.03;;;1.35;;
17959;SDS011;9105;53.552;9.980;2023-08-08T07:53:41;4.55;;;1.40;;
17959;SDS011;9105;53.552;9.980;2023-08-08T07:56:07;4.57;;;1.60;;
17959;SDS011;9105;53.552;9.980;2023-08-08T07:58:33;5.32;;;1.50;;
17959;SDS011;9105;53.552;9.980;2023-08-08T08:00:58;6.65;;;1.60;;
17959;SDS011;9105;53.552;9.980;2023-08-08T08:03:25;6.88;;;1.73;;
17959;SDS011;9105;53.552;9.980;2023-08-08T08:05:51;4.25;;;1.70;;
17959;SDS011;9105;53.552;9.980;2023-08-08T08:08:16;10.00;;;2.05;;
17959;SDS011;9105;53.552;9.980;2023-08-08T08:10:42;5.80;;;2.03;;
17959;SDS011;9105;53.552;9.980;2023-08-08T08:13:07;4.40;;;1.67;;
17959;SDS011;9105;53.552;9.980;2023-08-08T08:15:33;6.18;;;1.98;;
17959;SDS011;9105;53.552;9.980;2023-08-08T08:17:58;8.77;;;2.25;;
17959;SDS011;9105;53.552;9.980;2023-08-08T08:20:24;8.82;;;2.00;;
17959;SDS011;9105;53.552;9.980;2023-08-08T08:22:50;6.38;;;1.70;;
17959;SDS011;9105;53.552;9.980;2023-08-08T08:25:15;8.48;;;2.05;;
17959;SDS011;9105;53.552;9.980;2023-08-08T08:27:41;4.78;;;1.73;;
17959;SDS011;9105;53.552;9.980;2023-08-08T08:30:07;6.40;;;1.63;;
17959;SDS011;9105;53.552;9.980;2023-08-08T08:32:35;3.55;;;1.33;;
17959;SDS011;9105;53.552;9.980;2023-08-08T08:35:04;5.82;;;1.55;;
17959;SDS011;9105;53.552;9.980;2023-08-08T08:37:33;6.38;;;1.35;;
17959;SDS011;9105;53.552;9.980;2023-08-08T08:39:59;4.40;;;1.50;;
17959;SDS011;9105;53.552;9.980;2023-08-08T08:42:26;4.65;;;1.42;;
17959;SDS011;9105;53.552;9.980;2023-08-08T08:44:52;3.97;;;1.20;;
17959;SDS011;9105;53.552;9.980;2023-08-08T08:47:20;5.18;;;1.75;;
17959;SDS011;9105;53.552;9.980;2023-08-08T08:49:46;1.80;;;1.20;;
17959;SDS011;9105;53.552;9.980;2023-08-08T08:52:12;3.80;;;1.15;;
17959;SDS011;9105;53.552;9.980;2023-08-08T08:54:38;3.92;;;1.40;;
17959;SDS011;9105;53.552;9.980;2023-08-08T08:57:04;4.43;;;1.30;;
17959;SDS011;9105;53.552;9.980;2023-08-08T08:59:29;3.90;;;1.70;;
17959;SDS011;9105;53.552;9.980;2023-08-08T09:01:55;3.03;;;1.20;;
17959;SDS011;9105;53.552;9.980;2023-08-08T09:04:21;3.75;;;1.10;;
17959;SDS011;9105;53.552;9.980;2023-08-08T09:06:48;3.97;;;1.60;;
17959;SDS011;9105;53.552;9.980;2023-08-08T09:09:14;3.85;;;1.15;;
17959;SDS011;9105;53.552;9.980;2023-08-08T09:11:50;2.42;;;1.00;;
17959;SDS011;9105;53.552;9.980;2023-08-08T09:16:48;6.00;;;1.25;;
17959;SDS011;9105;53.552;9.980;2023-08-08T09:19:14;2.80;;;1.52;;
17959;SDS011;9105;53.552;9.980;2023-08-08T09:21:41;3.55;;;1.30;;
17959;SDS011;9105;53.552;9.980;2023-08-08T09:24:06;3.08;;;0.95;;
17959;SDS011;9105;53.552;9.980;2023-08-08T09:26:32;6.40;;;1.10;;
17959;SDS011;9105;53.552;9.980;2023-08-08T09:28:58;4.03;;;1.00;;
17959;SDS011;9105;53.552;9.980;2023-08-08T09:31:26;1.88;;;0.90;;
17959;SDS011;9105;53.552;9.980;2023-08-08T09:33:58;4.18;;;1.00;;
17959;SDS011;9105;53.552;9.980;2023-08-08T09:36:27;4.25;;;1.20;;
17959;SDS011;9105;53.552;9.980;2023-08-08T09:38:53;2.83;;;1.10;;
17959;SDS011;9105;53.552;9.980;2023-08-08T09:41:21;2.22;;;1.10;;
17959;SDS011;9105;53.552;9.980;2023-08-08T09:43:47;3.08;;;1.17;;
17959;SDS011;9105;53.552;9.980;2023-08-08T09:46:13;3.33;;;0.98;;
17959;SDS011;9105;53.552;9.980;2023-08-08T09:48:40;2.95;;;0.90;;
17959;SDS011;9105;53.552;9.980;2023-08-08T09:51:06;3.53;;;1.30;;
17959;SDS011;9105;53.552;9.980;2023-08-08T09:53:32;4.72;;;1.35;;
17959;SDS011;9105;53.552;9.980;2023-08-08T09:55:59;5.00;;;1.30;;
17959;SDS011;9105;53.552;9.980;2023-08-08T09:58:25;3.65;;;1.33;;
17959;SDS011;9105;53.552;9.980;2023-08-08T10:00:50;2.97;;;1.15;;
17959;SDS011;9105;53.552;9.980;2023-08-08T10:03:16;3.85;;;1.30;;
17959;SDS011;9105;53.552;9.980;2023-08-08T10:05:45;5.47;;;1.40;;
17959;SDS011;9105;53.552;9.980;2023-08-08T10:08:11;6.72;;;1.77;;
17959;SDS011;9105;53.552;9.980;2023-08-08T10:10:37;12.32;;;2.10;;
17959;SDS011;9105;53.552;9.980;2023-08-08T10:13:03;7.05;;;1.90;;
17959;SDS011;9105;53.552;9.980;2023-08-08T10:15:29;3.80;;;1.63;;
17959;SDS011;9105;53.552;9.980;2023-08-08T10:17:57;5.10;;;1.38;;
17959;SDS011;9105;53.552;9.980;2023-08-08T10:20:26;3.85;;;1.48;;
17959;SDS011;9105;53.552;9.980;2023-08-08T10:22:52;3.20;;;1.30;;
17959;SDS011;9105;53.552;9.980;2023-08-08T10:27:45;3.78;;;1.60;;
17959;SDS011;9105;53.552;9.980;2023-08-08T10:30:10;3.65;;;1.38;;
17959;SDS011;9105;53.552;9.980;2023-08-08T10:32:37;3.75;;;1.40;;
17959;SDS011;9105;53.552;9.980;2023-08-08T10:35:05;4.80;;;1.83;;
17959;SDS011;9105;53.552;9.980;2023-08-08T10:37:32;3.35;;;1.40;;
17959;SDS011;9105;53.552;9.980;2023-08-08T10:39:58;3.83;;;1.30;;
17959;SDS011;9105;53.552;9.980;2023-08-08T10:42:24;3.17;;;1.63;;
17959;SDS011;9105;53.552;9.980;2023-08-08T10:44:53;3.67;;;1.47;;
17959;SDS011;9105;53.552;9.980;2023-08-08T10:47:23;3.80;;;1.20;;
17959;SDS011;9105;53.552;9.980;2023-08-08T10:50:02;1.88;;;1.10;;
17959;SDS011;9105;53.552;9.980;2023-08-08T10:52:33;3.38;;;1.30;;
17959;SDS011;9105;53.552;9.980;2023-08-08T10:55:00;3.22;;;1.15;;
17959;SDS011;9105;53.552;9.980;2023-08-08T10:57:26;5.22;;;1.45;;
17959;SDS011;9105;53.552;9.980;2023-08-08T10:59:52;3.45;;;1.30;;
17959;SDS011;9105;53.552;9.980;2023-08-08T11:02:19;2.80;;;1.15;;
17959;SDS011;9105;53.552;9.980;2023-08-08T11:04:45;2.30;;;1.10;;
17959;SDS011;9105;53.552;9.980;2023-08-08T11:07:11;2.85;;;1.17;;
17959;SDS011;9105;53.552;9.980;2023-08-08T11:09:36;3.20;;;1.20;;
17959;SDS011;9105;53.552;9.980;2023-08-08T11:12:04;1.98;;;1.00;;
17959;SDS011;9105;53.552;9.980;2023-08-08T11:14:29;3.72;;;1.10;;
17959;SDS011;9105;53.552;9.980;2023-08-08T11:16:55;3.50;;;1.40;;
17959;SDS011;9105;53.552;9.980;2023-08-08T11:19:23;3.40;;;1.25;;
17959;SDS011;9105;53.552;9.980;2023-08-08T11:21:49;2.50;;;1.10;;
17959;SDS011;9105;53.552;9.980;2023-08-08T11:24:15;3.47;;;1.20;;
17959;SDS011;9105;53.552;9.980;2023-08-08T11:26:41;5.15;;;1.20;;
17959;SDS011;9105;53.552;9.980;2023-08-08T11:29:09;3.20;;;1.40;;
17959;SDS011;9105;53.552;9.980;2023-08-08T11:31:34;2.20;;;1.00;;
17959;SDS011;9105;53.552;9.980;2023-08-08T11:34:00;3.38;;;1.30;;
17959;SDS011;9105;53.552;9.980;2023-08-08T11:36:28;3.72;;;1.13;;
17959;SDS011;9105;53.552;9.980;2023-08-08T11:38:54;4.78;;;1.70;;
17959;SDS011;9105;53.552;9.980;2023-08-08T11:41:21;3.92;;;1.40;;
17959;SDS011;9105;53.552;9.980;2023-08-08T11:43:48;3.42;;;1.40;;
17959;SDS011;9105;53.552;9.980;2023-08-08T11:46:15;2.33;;;1.10;;
17959;SDS011;9105;53.552;9.980;2023-08-08T11:48:40;5.90;;;1.20;;
17959;SDS011;9105;53.552;9.980;2023-08-08T11:51:07;4.45;;;1.10;;
17959;SDS011;9105;53.552;9.980;2023-08-08T11:53:33;4.15;;;1.00;;
17959;SDS011;9105;53.552;9.980;2023-08-08T11:55:59;2.63;;;1.10;;
17959;SDS011;9105;53.552;9.980;2023-08-08T11:58:25;3.33;;;1.10;;
17959;SDS011;9105;53.552;9.980;2023-08-08T12:00:51;6.72;;;1.60;;
17959;SDS011;9105;53.552;9.980;2023-08-08T12:03:17;4.47;;;1.38;;
17959;SDS011;9105;53.552;9.980;2023-08-08T12:05:47;5.35;;;1.40;;
17959;SDS011;9105;53.552;9.980;2023-08-08T12:08:13;3.63;;;1.38;;
17959;SDS011;9105;53.552;9.980;2023-08-08T12:10:39;5.18;;;1.50;;
17959;SDS011;9105;53.552;9.980;2023-08-08T12:13:04;4.25;;;1.75;;
17959;SDS011;9105;53.552;9.980;2023-08-08T12:15:32;3.65;;;1.35;;
17959;SDS011;9105;53.552;9.980;2023-08-08T12:18:00;3.45;;;1.20;;
17959;SDS011;9105;53.552;9.980;2023-08-08T12:20:27;3.10;;;1.50;;
17959;SDS011;9105;53.552;9.980;2023-08-08T12:22:54;7.95;;;1.60;;
17959;SDS011;9105;53.552;9.980;2023-08-08T12:25:20;3.75;;;1.33;;
17959;SDS011;9105;53.552;9.980;2023-08-08T12:27:45;4.63;;;1.50;;
17959;SDS011;9105;53.552;9.980;2023-08-08T12:30:11;3.30;;;1.20;;
17959;SDS011;9105;53.552;9.980;2023-08-08T12:32:37;4.35;;;1.15;;
17959;SDS011;9105;53.552;9.980;2023-08-08T12:35:03;3.13;;;1.13;;
17959;SDS011;9105;53.552;9.980;2023-08-08T12:37:28;3.22;;;1.17;;
17959;SDS011;9105;53.552;9.980;2023-08-08T12:39:54;3.63;;;1.13;;
17959;SDS011;9105;53.552;9.980;2023-08-08T12:42:19;4.00;;;1.70;;
17959;SDS011;9105;53.552;9.980;2023-08-08T12:44:45;5.32;;;1.40;;
17959;SDS011;9105;53.552;9.980;2023-08-08T12:47:12;5.43;;;1.55;;
17959;SDS011;9105;53.552;9.980;2023-08-08T12:49:38;4.07;;;1.30;;
17959;SDS011;9105;53.552;9.980;2023-08-08T12:52:06;7.28;;;1.50;;
17959;SDS011;9105;53.552;9.980;2023-08-08T12:54:31;6.55;;;1.63;;
17959;SDS011;9105;53.552;9.980;2023-08-08T12:56:57;3.60;;;1.20;;
17959;SDS011;9105;53.552;9.980;2023-08-08T12:59:22;5.07;;;1.20;;
17959;SDS011;9105;53.552;9.980;2023-08-08T13:01:48;5.20;;;1.83;;
17959;SDS011;9105;53.552;9.980;2023-08-08T13:04:13;6.43;;;1.83;;
17959;SDS011;9105;53.552;9.980;2023-08-08T13:06:39;7.30;;;1.63;;
17959;SDS011;9105;53.552;9.980;2023-08-08T13:09:04;5.95;;;1.40;;
17959;SDS011;9105;53.552;9.980;2023-08-08T13:11:30;3.95;;;1.30;;
17959;SDS011;9105;53.552;9.980;2023-08-08T13:13:55;4.32;;;1.40;;
17959;SDS011;9105;53.552;9.980;2023-08-08T13:16:21;3.65;;;1.30;;
17959;SDS011;9105;53.552;9.980;2023-08-08T13:18:46;4.88;;;1.45;;
17959;SDS011;9105;53.552;9.980;2023-08-08T13:21:12;5.75;;;1.50;;
17959;SDS011;9105;53.552;9.980;2023-08-08T13:23:38;7.45;;;1.90;;
17959;SDS011;9105;53.552;9.980;2023-08-08T13:26:04;5.00;;;2.00;;
17959;SDS011;9105;53.552;9.980;2023-08-08T13:28:29;5.82;;;1.80;;
17959;SDS011;9105;53.552;9.980;2023-08-08T13:30:55;5.35;;;1.80;;
17959;SDS011;9105;53.552;9.980;2023-08-08T13:33:20;5.93;;;1.70;;
17959;SDS011;9105;53.552;9.980;2023-08-08T13:35:46;6.28;;;1.70;;
17959;SDS011;9105;53.552;9.980;2023-08-08T13:38:12;6.80;;;1.70;;
17959;SDS011;9105;53.552;9.980;2023-08-08T13:40:42;7.03;;;1.80;;
17959;SDS011;9105;53.552;9.980;2023-08-08T13:43:07;8.55;;;1.83;;
17959;SDS011;9105;53.552;9.980;2023-08-08T13:45:36;7.13;;;2.03;;
17959;SDS011;9105;53.552;9.980;2023-08-08T13:48:01;4.60;;;1.60;;
17959;SDS011;9105;53.552;9.980;2023-08-08T13:50:27;8.00;;;1.85;;
17959;SDS011;9105;53.552;9.980;2023-08-08T13:52:53;5.57;;;1.77;;
17959;SDS011;9105;53.552;9.980;2023-08-08T13:55:19;8.18;;;2.08;;
17959;SDS011;9105;53.552;9.980;2023-08-08T13:57:44;6.93;;;1.52;;
17959;SDS011;9105;53.552;9.980;2023-08-08T14:00:10;7.60;;;1.70;;
17959;SDS011;9105;53.552;9.980;2023-08-08T14:02:38;6.88;;;1.95;;
17959;SDS011;9105;53.552;9.980;2023-08-08T14:05:04;9.55;;;1.73;;
17959;SDS011;9105;53.552;9.980;2023-08-08T14:07:34;5.32;;;1.55;;
17959;SDS011;9105;53.552;9.980;2023-08-08T14:10:00;6.97;;;1.60;;
17959;SDS011;9105;53.552;9.980;2023-08-08T14:12:26;3.47;;;1.35;;
17959;SDS011;9105;53.552;9.980;2023-08-08T14:14:52;5.72;;;1.45;;
17959;SDS011;9105;53.552;9.980;2023-08-08T14:17:17;3.33;;;1.15;;
17959;SDS011;9105;53.552;9.980;2023-08-08T14:19:43;4.00;;;1.13;;
17959;SDS011;9105;53.552;9.980;2023-08-08T14:22:08;4.43;;;1.20;;
17959;SDS011;9105;53.552;9.980;2023-08-08T14:24:34;5.05;;;1.50;;
17959;SDS011;9105;53.552;9.980;2023-08-08T14:26:59;3.70;;;1.30;;
17959;SDS011;9105;53.552;9.980;2023-08-08T14:29:25;5.28;;;1.30;;
17959;SDS011;9105;53.552;9.980;2023-08-08T14:31:50;3.17;;;0.90;;
17959;SDS011;9105;53.552;9.980;2023-08-08T14:34:15;5.63;;;1.50;;
17959;SDS011;9105;53.552;9.980;2023-08-08T14:36:41;9.68;;;1.75;;
17959;SDS011;9105;53.552;9.980;2023-08-08T14:39:06;4.47;;;1.48;;
17959;SDS011;9105;53.552;9.980;2023-08-08T14:41:32;5.70;;;1.25;;
17959;SDS011;9105;53.552;9.980;2023-08-08T14:43:57;6.43;;;1.42;;
17959;SDS011;9105;53.552;9.980;2023-08-08T14:46:23;7.20;;;1.48;;
17959;SDS011;9105;53.552;9.980;2023-08-08T14:48:48;5.00;;;1.60;;
17959;SDS011;9105;53.552;9.980;2023-08-08T14:51:14;6.68;;;1.60;;
17959;SDS011;9105;53.552;9.980;2023-08-08T14:53:42;5.78;;;1.50;;
17959;SDS011;9105;53.552;9.980;2023-08-08T14:56:08;5.18;;;1.63;;
17959;SDS011;9105;53.552;9.980;2023-08-08T14:58:34;3.22;;;1.40;;
17959;SDS011;9105;53.552;9.980;2023-08-08T15:01:00;4.75;;;1.40;;